createdAt,value
2023-05-21T00:00:23.734Z,5.45
2023-05-21T00:02:52.580Z,5.40
2023-05-21T00:05:21.550Z,5.53
2023-05-21T00:07:53.369Z,5.50
2023-05-21T00:10:22.016Z,5.43
2023-05-21T00:12:50.080Z,5.28
2023-05-21T00:15:18.268Z,5.47
2023-05-21T00:17:47.734Z,5.45
2023-05-21T00:20:16.999Z,5.45
2023-05-21T00:22:45.309Z,5.63
2023-05-21T00:25:13.540Z,5.15
2023-05-21T00:27:41.672Z,5.50
2023-05-21T00:30:10.326Z,5.00
2023-05-21T00:32:38.809Z,5.60
2023-05-21T00:35:09.733Z,5.57
2023-05-21T00:37:38.167Z,5.72
2023-05-21T00:40:08.926Z,4.95
2023-05-21T00:42:39.921Z,5.32
2023-05-21T00:45:11.218Z,5.63
2023-05-21T00:47:39.749Z,5.50
2023-05-21T00:50:10.643Z,5.30
2023-05-21T00:52:42.230Z,5.47
2023-05-21T00:55:11.576Z,5.18
2023-05-21T00:57:41.291Z,5.13
2023-05-21T01:00:10.854Z,5.25
2023-05-21T01:02:39.622Z,5.35
2023-05-21T01:05:09.933Z,5.00
2023-05-21T01:07:41.050Z,4.88
2023-05-21T01:10:15.870Z,5.25
2023-05-21T01:12:45.444Z,5.00
2023-05-21T01:15:14.217Z,5.43
2023-05-21T01:17:42.926Z,4.35
2023-05-21T01:20:13.479Z,5.13
2023-05-21T01:22:44.690Z,5.20
2023-05-21T01:25:15.104Z,5.45
2023-05-21T01:27:43.224Z,4.80
2023-05-21T01:30:12.565Z,5.07
2023-05-21T01:32:49.171Z,4.90
2023-05-21T01:35:22.873Z,5.25
2023-05-21T01:37:59.043Z,5.20
2023-05-21T01:40:35.881Z,5.28
2023-05-21T01:43:06.765Z,5.20
2023-05-21T01:45:37.848Z,5.32
2023-05-21T01:48:08.315Z,5.13
2023-05-21T01:50:39.016Z,5.00
2023-05-21T01:53:07.133Z,4.90
2023-05-21T01:55:39.653Z,5.22
2023-05-21T01:58:08.172Z,5.00
2023-05-21T02:00:37.491Z,4.97
2023-05-21T02:03:05.724Z,5.22
2023-05-21T02:05:33.964Z,5.00
2023-05-21T02:08:05.495Z,4.78
2023-05-21T02:10:33.583Z,5.22
2023-05-21T02:13:03.398Z,5.15
2023-05-21T02:15:35.121Z,4.78
2023-05-21T02:18:03.962Z,5.00
2023-05-21T02:20:35.151Z,4.80
2023-05-21T02:23:03.274Z,4.68
2023-05-21T02:25:31.586Z,4.43
2023-05-21T02:27:59.717Z,5.53
2023-05-21T02:30:29.331Z,5.32
2023-05-21T02:32:59.020Z,4.70
2023-05-21T02:35:28.621Z,5.00
2023-05-21T02:37:59.214Z,4.90
2023-05-21T02:40:27.560Z,5.07
2023-05-21T02:42:55.724Z,4.97
2023-05-21T02:45:26.578Z,4.80
2023-05-21T02:47:56.159Z,4.75
2023-05-21T02:50:24.580Z,5.28
2023-05-21T02:52:52.658Z,5.05
2023-05-21T02:55:20.955Z,5.53
2023-05-21T02:57:56.276Z,4.68
2023-05-21T03:00:24.504Z,5.30
2023-05-21T03:02:52.819Z,4.43
2023-05-21T03:05:22.907Z,4.90
2023-05-21T03:07:51.086Z,4.70
2023-05-21T03:10:19.160Z,4.65
2023-05-21T03:12:47.255Z,4.72
2023-05-21T03:15:15.801Z,4.78
2023-05-21T03:17:45.050Z,4.95
2023-05-21T03:20:19.013Z,5.00
2023-05-21T03:22:49.873Z,4.82
2023-05-21T03:25:18.093Z,4.65
2023-05-21T03:27:46.228Z,5.07
2023-05-21T03:30:14.750Z,4.97
2023-05-21T03:32:45.156Z,4.70
2023-05-21T03:35:13.603Z,5.07
2023-05-21T03:37:41.692Z,5.13
2023-05-21T03:40:12.156Z,4.82
2023-05-21T03:42:40.238Z,4.82
2023-05-21T03:45:09.137Z,5.13
2023-05-21T03:47:37.224Z,4.90
2023-05-21T03:50:07.687Z,4.97
2023-05-21T03:52:35.728Z,5.10
2023-05-21T03:55:03.784Z,4.82
2023-05-21T03:57:34.255Z,5.38
2023-05-21T04:00:02.647Z,4.88
2023-05-21T04:02:30.926Z,4.95
2023-05-21T04:04:59.104Z,5.20
2023-05-21T04:07:27.310Z,4.72
2023-05-21T04:09:55.476Z,4.90
2023-05-21T04:12:23.654Z,4.70
2023-05-21T04:14:54.337Z,4.40
2023-05-21T04:17:22.538Z,5.20
2023-05-21T04:19:50.729Z,4.75
2023-05-21T04:22:18.807Z,4.90
2023-05-21T04:24:48.889Z,5.00
2023-05-21T04:27:17.112Z,4.95
2023-05-21T04:29:45.230Z,4.53
2023-05-21T04:32:15.349Z,4.95
2023-05-21T04:34:43.501Z,4.53
2023-05-21T04:37:12.122Z,4.88
2023-05-21T04:39:41.097Z,4.50
2023-05-21T04:42:10.892Z,4.47
2023-05-21T04:44:42.467Z,4.53
2023-05-21T04:47:12.361Z,4.53
2023-05-21T04:49:41.855Z,5.22
2023-05-21T04:52:09.987Z,5.43
2023-05-21T04:54:39.032Z,5.07
2023-05-21T04:57:07.733Z,4.45
2023-05-21T04:59:37.035Z,4.68
2023-05-21T05:02:05.125Z,5.18
2023-05-21T05:04:33.478Z,4.60
2023-05-21T05:07:02.951Z,4.85
2023-05-21T05:09:33.732Z,4.30
2023-05-21T05:12:01.943Z,4.50
2023-05-21T05:14:30.050Z,4.80
2023-05-21T05:17:00.652Z,4.97
2023-05-21T05:19:29.307Z,4.65
2023-05-21T05:21:57.649Z,4.60
2023-05-21T05:24:27.272Z,4.85
2023-05-21T05:26:55.416Z,4.63
2023-05-21T05:29:23.525Z,4.40
2023-05-21T05:31:51.643Z,4.88
2023-05-21T05:34:20.013Z,5.03
2023-05-21T05:36:48.162Z,5.10
2023-05-21T05:39:16.220Z,4.80
2023-05-21T05:41:45.768Z,4.50
2023-05-21T05:44:13.885Z,4.85
2023-05-21T05:46:42.068Z,4.53
2023-05-21T05:49:13.718Z,4.95
2023-05-21T05:51:42.091Z,4.63
2023-05-21T05:54:10.219Z,4.28
2023-05-21T05:56:38.334Z,4.60
2023-05-21T05:59:07.801Z,4.70
2023-05-21T06:01:35.964Z,4.80
2023-05-21T06:04:06.764Z,4.35
2023-05-21T06:06:34.956Z,4.47
2023-05-21T06:09:02.997Z,4.60
2023-05-21T06:11:31.173Z,4.65
2023-05-21T06:14:00.940Z,4.72
2023-05-21T06:16:31.695Z,4.88
2023-05-21T06:18:59.981Z,5.10
2023-05-21T06:21:34.704Z,4.40
2023-05-21T06:24:02.821Z,4.60
2023-05-21T06:26:30.841Z,4.70
2023-05-21T06:28:59.230Z,4.75
2023-05-21T06:31:28.015Z,5.03
2023-05-21T06:33:57.599Z,4.10
2023-05-21T06:36:29.673Z,4.13
2023-05-21T06:38:57.940Z,4.50
2023-05-21T06:41:26.431Z,4.22
2023-05-21T06:43:54.962Z,4.55
2023-05-21T06:46:23.208Z,4.28
2023-05-21T06:48:51.322Z,4.38
2023-05-21T06:51:20.845Z,4.55
2023-05-21T06:53:49.145Z,4.55
2023-05-21T06:56:17.237Z,4.38
2023-05-21T06:58:45.407Z,4.10
2023-05-21T07:01:13.623Z,4.28
2023-05-21T07:03:41.776Z,4.60
2023-05-21T07:06:09.912Z,4.47
2023-05-21T07:08:39.401Z,4.20
2023-05-21T07:11:07.922Z,4.40
2023-05-21T07:13:36.586Z,4.20
2023-05-21T07:16:04.804Z,4.53
2023-05-21T07:18:33.060Z,4.20
2023-05-21T07:21:01.184Z,4.50
2023-05-21T07:23:29.509Z,4.40
2023-05-21T07:26:04.141Z,4.30
2023-05-21T07:28:32.204Z,4.70
2023-05-21T07:31:00.323Z,4.07
2023-05-21T07:33:28.860Z,4.60
2023-05-21T07:35:56.957Z,4.47
2023-05-21T07:38:25.344Z,4.72
2023-05-21T07:40:56.831Z,4.68
2023-05-21T07:43:26.390Z,4.32
2023-05-21T07:46:04.297Z,4.40
2023-05-21T07:48:35.710Z,4.75
2023-05-21T07:51:04.977Z,4.60
2023-05-21T07:53:33.381Z,4.82
2023-05-21T07:56:08.977Z,4.10
2023-05-21T07:58:39.462Z,4.13
2023-05-21T08:01:07.680Z,4.60
2023-05-21T08:03:35.952Z,4.88
2023-05-21T08:06:04.567Z,4.35
2023-05-21T08:08:33.058Z,4.32
2023-05-21T08:11:01.937Z,4.10
2023-05-21T08:13:29.829Z,4.78
2023-05-21T08:15:59.359Z,4.57
2023-05-21T08:18:27.481Z,4.60
2023-05-21T08:20:55.819Z,4.20
2023-05-21T08:23:24.241Z,4.20
2023-05-21T08:25:53.620Z,4.40
2023-05-21T08:28:23.060Z,4.57
2023-05-21T08:30:51.245Z,4.70
2023-05-21T08:33:23.095Z,4.57
2023-05-21T08:35:51.557Z,4.40
2023-05-21T08:38:19.627Z,4.18
2023-05-21T08:40:48.456Z,4.55
2023-05-21T08:43:17.924Z,4.57
2023-05-21T08:45:48.779Z,4.80
2023-05-21T08:48:18.454Z,5.05
2023-05-21T08:50:48.548Z,4.28
2023-05-21T08:53:27.251Z,4.78
2023-05-21T08:55:57.317Z,4.70
2023-05-21T08:58:25.878Z,4.50
2023-05-21T09:00:55.438Z,4.85
2023-05-21T09:03:24.323Z,5.18
2023-05-21T09:05:55.840Z,4.80
2023-05-21T09:08:28.931Z,4.32
2023-05-21T09:10:57.127Z,4.57
2023-05-21T09:13:28.311Z,5.00
2023-05-21T09:15:56.635Z,4.80
2023-05-21T09:18:24.712Z,4.35
2023-05-21T09:20:56.541Z,4.47
2023-05-21T09:23:24.752Z,4.50
2023-05-21T09:25:54.076Z,4.63
2023-05-21T09:28:22.263Z,4.78
2023-05-21T09:30:54.177Z,4.47
2023-05-21T09:33:30.656Z,5.00
2023-05-21T09:36:00.333Z,4.75
2023-05-21T09:38:29.528Z,4.68
2023-05-21T09:40:57.722Z,4.57
2023-05-21T09:43:26.453Z,4.65
2023-05-21T09:45:56.128Z,4.45
2023-05-21T09:48:35.574Z,4.38
2023-05-21T09:51:12.793Z,4.40
2023-05-21T09:53:55.063Z,4.43
2023-05-21T09:56:24.827Z,4.33
2023-05-21T09:58:54.895Z,4.55
2023-05-21T10:01:23.320Z,4.28
2023-05-21T10:03:57.211Z,4.07
2023-05-21T10:06:29.331Z,4.78
2023-05-21T10:08:58.541Z,4.40
2023-05-21T10:11:31.977Z,4.45
2023-05-21T10:14:06.041Z,4.57
2023-05-21T10:16:37.521Z,4.00
2023-05-21T10:19:10.911Z,4.30
2023-05-21T10:21:42.073Z,4.38
2023-05-21T10:24:10.569Z,4.38
2023-05-21T10:26:39.640Z,4.22
2023-05-21T10:29:09.237Z,4.50
2023-05-21T10:31:39.948Z,4.22
2023-05-21T10:34:08.639Z,4.13
2023-05-21T10:36:39.063Z,4.10
2023-05-21T10:39:10.866Z,4.50
2023-05-21T10:42:00.321Z,3.92
2023-05-21T10:44:40.053Z,4.55
2023-05-21T10:47:41.223Z,4.00
2023-05-21T10:50:25.691Z,4.15
2023-05-21T10:53:10.897Z,4.22
2023-05-21T10:55:53.254Z,4.18
2023-05-21T10:58:42.892Z,4.20
2023-05-21T11:01:12.188Z,4.10
2023-05-21T11:03:40.668Z,4.40
2023-05-21T11:06:08.840Z,4.30
2023-05-21T11:08:38.961Z,4.03
2023-05-21T11:11:09.040Z,4.13
2023-05-21T11:13:49.313Z,3.85
2023-05-21T11:16:19.313Z,3.97
2023-05-21T11:19:03.504Z,3.80
2023-05-21T11:21:34.866Z,4.18
2023-05-21T11:24:06.473Z,3.90
2023-05-21T11:27:04.874Z,4.10
2023-05-21T11:29:44.375Z,4.10
2023-05-21T11:32:15.317Z,3.92
2023-05-21T11:34:46.068Z,4.30
2023-05-21T11:37:29.997Z,4.10
2023-05-21T11:39:59.812Z,3.55
2023-05-21T11:42:34.200Z,3.83
2023-05-21T11:45:04.113Z,3.90
2023-05-21T11:47:33.279Z,4.30
2023-05-21T11:50:02.955Z,3.80
2023-05-21T11:52:31.916Z,4.05
2023-05-21T11:55:01.630Z,4.13
2023-05-21T11:57:31.936Z,4.47
2023-05-21T12:00:12.647Z,4.03
2023-05-21T12:02:45.973Z,3.67
2023-05-21T12:05:18.017Z,3.80
2023-05-21T12:07:51.106Z,4.68
2023-05-21T12:10:22.745Z,4.03
2023-05-21T12:12:56.255Z,4.20
2023-05-21T12:15:28.146Z,3.83
2023-05-21T12:17:57.246Z,4.00
2023-05-21T12:20:29.037Z,4.00
2023-05-21T12:22:59.261Z,3.93
2023-05-21T12:25:32.077Z,4.35
2023-05-21T12:30:31.164Z,4.30
2023-05-21T12:33:03.226Z,4.30
2023-05-21T12:35:31.861Z,4.30
2023-05-21T12:38:03.093Z,4.22
2023-05-21T12:40:39.625Z,4.20
2023-05-21T12:43:08.673Z,4.35
2023-05-21T12:45:41.442Z,4.25
2023-05-21T12:50:40.542Z,4.40
2023-05-21T12:53:12.321Z,4.18
2023-05-21T12:55:41.324Z,4.60
2023-05-21T12:58:09.616Z,4.43
2023-05-21T13:00:38.672Z,4.50
2023-05-21T13:03:09.098Z,4.20
2023-05-21T13:05:41.581Z,4.32
2023-05-21T13:08:14.214Z,4.53
2023-05-21T13:10:42.473Z,4.10
2023-05-21T13:13:10.733Z,3.85
2023-05-21T13:15:38.937Z,4.80
2023-05-21T13:18:08.550Z,4.45
2023-05-21T13:20:37.933Z,4.05
2023-05-21T13:23:07.691Z,4.60
2023-05-21T13:25:37.558Z,4.63
2023-05-21T13:28:08.630Z,4.38
2023-05-21T13:30:37.360Z,4.28
2023-05-21T13:33:08.665Z,4.70
2023-05-21T13:35:36.836Z,4.80
2023-05-21T13:38:06.996Z,5.03
2023-05-21T13:40:37.389Z,4.85
2023-05-21T13:43:06.909Z,4.85
2023-05-21T13:45:35.055Z,4.68
2023-05-21T13:48:03.427Z,5.03
2023-05-21T13:50:33.017Z,4.85
2023-05-21T13:53:01.101Z,5.13
2023-05-21T13:55:31.941Z,5.03
2023-05-21T13:58:00.122Z,4.93
2023-05-21T14:00:28.448Z,5.50
2023-05-21T14:02:56.820Z,4.97
2023-05-21T14:05:25.009Z,5.07
2023-05-21T14:07:54.653Z,5.18
2023-05-21T14:10:25.684Z,4.70
2023-05-21T14:12:55.838Z,5.13
2023-05-21T14:15:27.695Z,5.05
2023-05-21T14:17:55.974Z,4.97
2023-05-21T14:20:24.207Z,5.00
2023-05-21T14:22:52.408Z,4.93
2023-05-21T14:25:22.045Z,4.80
2023-05-21T14:27:51.758Z,4.82
2023-05-21T14:30:19.900Z,4.60
2023-05-21T14:32:48.040Z,5.15
2023-05-21T14:35:16.277Z,4.78
2023-05-21T14:37:44.445Z,5.13
2023-05-21T14:40:13.489Z,4.72
2023-05-21T14:42:42.929Z,4.80
2023-05-21T14:45:18.996Z,5.30
2023-05-21T14:47:48.728Z,5.00
2023-05-21T14:50:18.674Z,5.30
2023-05-21T14:52:46.854Z,5.25
2023-05-21T14:55:18.673Z,4.80
2023-05-21T14:57:51.409Z,5.35
2023-05-21T15:00:19.644Z,4.65
2023-05-21T15:02:48.038Z,5.20
2023-05-21T15:05:16.304Z,4.47
2023-05-21T15:07:44.666Z,4.90
2023-05-21T15:10:13.080Z,4.70
2023-05-21T15:12:41.745Z,5.32
2023-05-21T15:15:13.532Z,4.55
2023-05-21T15:17:41.762Z,5.10
2023-05-21T15:20:10.670Z,4.85
2023-05-21T15:22:39.085Z,5.20
2023-05-21T15:25:08.015Z,4.85
2023-05-21T15:27:36.551Z,4.82
2023-05-21T15:30:05.104Z,4.63
2023-05-21T15:32:34.590Z,4.75
2023-05-21T15:35:02.842Z,4.88
2023-05-21T15:37:33.028Z,4.93
2023-05-21T15:40:01.314Z,4.53
2023-05-21T15:42:31.827Z,4.75
2023-05-21T15:45:00.174Z,5.10
2023-05-21T15:47:28.455Z,5.07
2023-05-21T15:49:58.890Z,4.93
2023-05-21T15:52:27.125Z,4.75
2023-05-21T15:54:56.157Z,4.65
2023-05-21T15:57:24.343Z,4.88
2023-05-21T15:59:52.675Z,5.30
2023-05-21T16:02:21.695Z,5.05
2023-05-21T16:04:51.777Z,4.78
2023-05-21T16:07:21.427Z,4.45
2023-05-21T16:09:49.541Z,4.63
2023-05-21T16:12:17.771Z,4.60
2023-05-21T16:14:46.062Z,4.88
2023-05-21T16:17:14.206Z,4.70
2023-05-21T16:19:42.554Z,4.57
2023-05-21T16:22:11.175Z,4.93
2023-05-21T16:24:40.734Z,5.55
2023-05-21T16:27:08.855Z,6.35
2023-05-21T16:29:41.139Z,6.40
2023-05-21T16:32:09.758Z,7.03
2023-05-21T16:34:38.033Z,8.05
2023-05-21T16:37:08.630Z,8.25
2023-05-21T16:39:36.892Z,6.93
2023-05-21T16:42:13.157Z,6.53
2023-05-21T16:44:57.981Z,6.20
2023-05-21T16:47:34.208Z,6.22
2023-05-21T16:50:05.694Z,6.20
2023-05-21T16:52:36.365Z,5.72
2023-05-21T16:55:04.823Z,5.90
2023-05-21T16:57:34.307Z,5.45
2023-05-21T17:00:03.925Z,5.57
2023-05-21T17:02:32.304Z,5.45
2023-05-21T17:05:00.488Z,5.18
2023-05-21T17:07:28.684Z,5.30
2023-05-21T17:09:56.826Z,5.45
2023-05-21T17:12:25.232Z,5.40
2023-05-21T17:14:54.811Z,5.50
2023-05-21T17:17:23.011Z,4.78
2023-05-21T17:19:51.100Z,5.05
2023-05-21T17:22:19.273Z,5.30
2023-05-21T17:24:47.566Z,5.10
2023-05-21T17:27:17.413Z,5.00
2023-05-21T17:29:45.958Z,5.25
2023-05-21T17:32:17.060Z,5.20
2023-05-21T17:34:53.841Z,4.60
2023-05-21T17:37:22.034Z,4.88
2023-05-21T17:39:50.212Z,5.13
2023-05-21T17:42:18.908Z,5.07
2023-05-21T17:44:47.165Z,5.20
2023-05-21T17:47:16.670Z,4.95
2023-05-21T17:49:44.905Z,4.75
2023-05-21T17:52:13.078Z,4.93
2023-05-21T17:54:41.213Z,4.65
2023-05-21T17:57:09.432Z,4.55
2023-05-21T17:59:40.314Z,5.15
2023-05-21T18:02:09.024Z,4.97
2023-05-21T18:04:39.084Z,4.70
2023-05-21T18:07:07.352Z,5.13
2023-05-21T18:09:38.835Z,4.80
2023-05-21T18:12:09.108Z,4.80
2023-05-21T18:14:37.560Z,4.75
2023-05-21T18:17:06.255Z,5.22
2023-05-21T18:19:34.604Z,4.88
2023-05-21T18:22:05.228Z,5.15
2023-05-21T18:24:33.435Z,5.07
2023-05-21T18:27:02.109Z,5.30
2023-05-21T18:29:30.986Z,5.00
2023-05-21T18:31:59.468Z,5.63
2023-05-21T18:34:28.406Z,5.38
2023-05-21T18:36:58.946Z,5.28
2023-05-21T18:39:29.657Z,5.40
2023-05-21T18:42:12.016Z,5.63
2023-05-21T18:47:09.970Z,6.20
2023-05-21T18:49:38.484Z,5.90
2023-05-21T18:52:07.764Z,6.53
2023-05-21T18:54:37.763Z,6.38
2023-05-21T18:57:06.586Z,6.40
2023-05-21T18:59:35.075Z,6.78
2023-05-21T19:02:04.694Z,6.82
2023-05-21T19:04:36.536Z,7.05
2023-05-21T19:07:05.530Z,7.78
2023-05-21T19:09:34.200Z,7.78
2023-05-21T19:12:04.703Z,7.20
2023-05-21T19:14:33.420Z,8.00
2023-05-21T19:17:02.124Z,7.63
2023-05-21T19:19:31.025Z,6.90
2023-05-21T19:22:02.402Z,6.75
2023-05-21T19:24:31.104Z,6.95
2023-05-21T19:27:00.798Z,6.88
2023-05-21T19:29:30.919Z,6.50
2023-05-21T19:31:59.537Z,6.78
2023-05-21T19:34:28.261Z,6.28
2023-05-21T19:36:56.984Z,6.70
2023-05-21T19:39:25.665Z,7.03
2023-05-21T19:41:59.391Z,6.45
2023-05-21T19:44:28.437Z,6.40
2023-05-21T19:46:58.391Z,6.88
2023-05-21T19:49:27.002Z,6.78
2023-05-21T19:51:56.254Z,6.43
2023-05-21T19:54:27.522Z,6.78
2023-05-21T19:56:56.867Z,6.90
2023-05-21T19:59:26.264Z,6.45
2023-05-21T20:01:56.529Z,6.32
2023-05-21T20:04:26.519Z,5.75
2023-05-21T20:06:55.096Z,6.75
2023-05-21T20:09:23.603Z,6.50
2023-05-21T20:11:52.734Z,6.57
2023-05-21T20:14:20.886Z,6.47
2023-05-21T20:16:49.270Z,6.97
2023-05-21T20:19:17.652Z,6.25
2023-05-21T20:21:49.159Z,6.20
2023-05-21T20:24:17.425Z,6.57
2023-05-21T20:26:46.330Z,6.18
2023-05-21T20:29:14.513Z,6.00
2023-05-21T20:31:43.122Z,6.32
2023-05-21T20:34:12.350Z,5.85
2023-05-21T20:36:41.502Z,6.10
2023-05-21T20:39:14.400Z,6.00
2023-05-21T20:41:44.703Z,6.20
2023-05-21T20:44:16.822Z,6.03
2023-05-21T20:46:46.372Z,5.60
2023-05-21T20:49:15.179Z,6.25
2023-05-21T20:51:43.346Z,5.95
2023-05-21T20:54:13.021Z,5.65
2023-05-21T20:56:42.796Z,6.10
2023-05-21T20:59:12.002Z,5.95
2023-05-21T21:01:40.749Z,5.85
2023-05-21T21:04:12.173Z,5.97
2023-05-21T21:06:40.569Z,5.45
2023-05-21T21:09:09.360Z,5.70
2023-05-21T21:11:39.052Z,5.22
2023-05-21T21:14:07.242Z,5.47
2023-05-21T21:16:35.557Z,6.05
2023-05-21T21:19:04.039Z,5.13
2023-05-21T21:21:32.691Z,5.38
2023-05-21T21:24:00.816Z,5.75
2023-05-21T21:26:28.966Z,5.47
2023-05-21T21:28:59.513Z,5.30
2023-05-21T21:31:27.702Z,5.47
2023-05-21T21:33:55.995Z,5.63
2023-05-21T21:36:24.182Z,5.32
2023-05-21T21:38:52.293Z,5.28
2023-05-21T21:41:21.895Z,5.53
2023-05-21T21:43:51.613Z,5.68
2023-05-21T21:46:21.158Z,5.38
2023-05-21T21:48:49.281Z,5.43
2023-05-21T21:51:17.532Z,5.28
2023-05-21T21:53:45.675Z,5.22
2023-05-21T21:56:13.827Z,5.45
2023-05-21T21:58:41.943Z,5.25
2023-05-21T22:01:10.074Z,5.22
2023-05-21T22:03:39.644Z,5.30
2023-05-21T22:06:08.082Z,5.47
2023-05-21T22:08:36.215Z,5.05
2023-05-21T22:11:04.344Z,5.32
2023-05-21T22:13:32.948Z,5.47
2023-05-21T22:16:02.066Z,5.18
2023-05-21T22:18:40.364Z,5.07
2023-05-21T22:21:14.257Z,5.00
2023-05-21T22:23:42.623Z,5.57
2023-05-21T22:26:10.961Z,5.25
2023-05-21T22:28:39.110Z,5.18
2023-05-21T22:31:07.372Z,5.22
2023-05-21T22:33:36.721Z,4.95
2023-05-21T22:36:05.423Z,5.53
2023-05-21T22:38:34.938Z,4.88
2023-05-21T22:41:06.611Z,5.50
2023-05-21T22:43:35.382Z,5.15
2023-05-21T22:46:03.782Z,5.15
2023-05-21T22:48:32.030Z,4.97
2023-05-21T22:51:01.700Z,4.80
2023-05-21T22:53:29.965Z,4.78
2023-05-21T22:55:59.521Z,5.03
2023-05-21T22:58:27.669Z,5.15
2023-05-21T23:00:55.815Z,5.15
2023-05-21T23:03:23.924Z,5.07
2023-05-21T23:05:52.525Z,5.10
2023-05-21T23:08:20.813Z,4.93
2023-05-21T23:10:49.022Z,4.75
2023-05-21T23:13:18.800Z,4.97
2023-05-21T23:15:48.626Z,4.80
2023-05-21T23:18:17.313Z,4.80
2023-05-21T23:20:45.658Z,5.05
2023-05-21T23:23:13.754Z,4.60
2023-05-21T23:25:41.848Z,4.80
2023-05-21T23:28:10.292Z,5.22
2023-05-21T23:30:40.108Z,4.72
2023-05-21T23:33:08.599Z,4.93
2023-05-21T23:35:37.131Z,4.97
2023-05-21T23:38:05.200Z,4.80
2023-05-21T23:40:33.302Z,4.85
2023-05-21T23:43:01.636Z,4.72
2023-05-21T23:45:29.832Z,4.55
2023-05-21T23:47:59.390Z,4.60
2023-05-21T23:50:27.593Z,4.40
2023-05-21T23:52:55.895Z,4.53
2023-05-21T23:55:24.021Z,4.53
2023-05-21T23:57:52.167Z,4.45
